Time;durP1;ratioP1;P1;durP2;ratioP2;P2;SDS_P1;SDS_P2;PMS_P1;PMS_P2;Temp;Humidity;BMP_temperature;BMP_pressure;BME280_temperature;BME280_humidity;BME280_pressure;Samples;Min_cycle;Max_cycle;Signal;HPM_P1;HPM_P2
2024/02/15 00:00:03;;;;;;;14.18;7.53;;;;;;;11.02;100.00;101454.00;4984294;28;20056;-80
2024/02/15 00:02:29;;;;;;;12.88;7.00;;;;;;;10.97;100.00;101453.59;4987533;28;20036;-80
2024/02/15 00:04:56;;;;;;;20.33;7.22;;;;;;;11.03;100.00;101454.81;5002414;28;20034;-79
2024/02/15 00:07:22;;;;;;;15.02;7.18;;;;;;;11.06;100.00;101452.75;4977008;28;20039;-80
2024/02/15 00:09:48;;;;;;;17.33;7.93;;;;;;;10.97;100.00;101456.19;4985804;28;20154;-80
2024/02/15 00:12:14;;;;;;;23.42;8.07;;;;;;;11.02;100.00;101448.81;4966107;28;20038;-80
2024/02/15 00:14:39;;;;;;;20.92;8.30;;;;;;;10.97;100.00;101452.78;4969066;28;20857;-80
2024/02/15 00:17:05;;;;;;;23.58;7.50;;;;;;;10.96;100.00;101459.75;4983507;28;20113;-79
2024/02/15 00:19:31;;;;;;;23.42;8.88;;;;;;;11.04;100.00;101457.28;5003914;28;20534;-80
2024/02/15 00:21:56;;;;;;;13.30;6.95;;;;;;;11.00;100.00;101457.69;4974291;28;20038;-79
2024/02/15 00:24:23;;;;;;;17.65;7.15;;;;;;;11.02;100.00;101455.75;4989824;28;20476;-80
2024/02/15 00:26:49;;;;;;;15.27;7.03;;;;;;;11.01;100.00;101464.53;4986675;28;20518;-79
2024/02/15 00:29:15;;;;;;;16.60;7.38;;;;;;;11.08;100.00;101466.41;4988792;28;20033;-79
2024/02/15 00:31:40;;;;;;;17.33;7.45;;;;;;;11.01;100.00;101459.34;4985134;28;20054;-79
2024/02/15 00:34:06;;;;;;;13.98;7.05;;;;;;;11.00;100.00;101462.88;4984214;28;20033;-79
2024/02/15 00:36:34;;;;;;;25.23;8.15;;;;;;;10.95;100.00;101471.09;4983456;28;20100;-79
2024/02/15 00:39:00;;;;;;;18.30;6.32;;;;;;;10.94;100.00;101469.44;4967992;28;20045;-79
2024/02/15 00:41:26;;;;;;;15.98;6.30;;;;;;;10.97;100.00;101460.59;4983852;28;20806;-79
2024/02/15 00:43:52;;;;;;;18.48;6.65;;;;;;;10.98;100.00;101457.00;5001201;28;20046;-79
2024/02/15 00:46:17;;;;;;;18.20;7.35;;;;;;;10.96;100.00;101454.56;4982625;28;20396;-79
2024/02/15 00:48:43;;;;;;;16.30;7.18;;;;;;;10.95;100.00;101452.13;4988880;28;20026;-79
2024/02/15 00:51:08;;;;;;;16.33;6.07;;;;;;;11.03;100.00;101447.84;5004545;28;20052;-78
2024/02/15 00:53:34;;;;;;;18.92;6.93;;;;;;;10.99;100.00;101453.47;5003980;28;20041;-80
2024/02/15 00:55:59;;;;;;;18.42;7.07;;;;;;;11.02;100.00;101443.63;5003531;28;20449;-79
2024/02/15 00:58:26;;;;;;;24.67;6.53;;;;;;;11.13;100.00;101442.59;4985657;28;20037;-78
2024/02/15 01:00:53;;;;;;;16.70;6.40;;;;;;;11.05;100.00;101429.53;4985357;28;20607;-79
2024/02/15 01:03:19;;;;;;;23.80;6.75;;;;;;;11.12;100.00;101427.19;4985971;28;20625;-78
2024/02/15 01:05:44;;;;;;;20.92;7.28;;;;;;;11.09;100.00;101426.53;4981518;28;20034;-79
2024/02/15 01:08:11;;;;;;;24.20;7.07;;;;;;;11.13;100.00;101423.63;4972909;28;20496;-79
2024/02/15 01:10:36;;;;;;;22.33;7.40;;;;;;;11.07;100.00;101425.81;4971996;28;20058;-79
2024/02/15 01:13:02;;;;;;;17.08;7.20;;;;;;;11.17;100.00;101427.56;4979403;28;20061;-79
2024/02/15 01:15:27;;;;;;;23.48;7.85;;;;;;;11.07;100.00;101423.22;4983671;28;20121;-79
2024/02/15 01:17:54;;;;;;;23.70;8.07;;;;;;;11.14;100.00;101426.06;5006466;28;20018;-78
2024/02/15 01:20:20;;;;;;;20.05;7.40;;;;;;;11.08;100.00;101422.28;4997409;28;20042;-78
2024/02/15 01:22:46;;;;;;;21.35;6.45;;;;;;;11.16;100.00;101425.94;4973465;28;21351;-79
2024/02/15 01:25:12;;;;;;;17.88;7.68;;;;;;;11.12;100.00;101425.41;4986286;28;20052;-79
2024/02/15 01:27:38;;;;;;;17.08;6.72;;;;;;;11.09;100.00;101418.75;4983586;28;20033;-80
2024/02/15 01:30:04;;;;;;;25.10;7.57;;;;;;;11.07;100.00;101430.19;4983218;28;20045;-79
2024/02/15 01:32:30;;;;;;;17.67;7.38;;;;;;;11.03;100.00;101421.88;5005723;28;20421;-79
2024/02/15 01:34:56;;;;;;;15.98;6.72;;;;;;;11.16;100.00;101420.75;4980243;28;20113;-78
2024/02/15 01:37:22;;;;;;;19.25;6.60;;;;;;;11.10;100.00;101420.34;4988089;28;20509;-79
2024/02/15 01:39:49;;;;;;;20.38;6.70;;;;;;;11.16;100.00;101424.16;4985544;28;20072;-78
2024/02/15 01:42:14;;;;;;;17.48;5.93;;;;;;;11.12;100.00;101422.00;4986466;28;20996;-79
2024/02/15 01:44:40;;;;;;;17.00;6.30;;;;;;;11.17;100.00;101420.59;4984146;28;20029;-78
2024/02/15 01:47:08;;;;;;;18.55;6.80;;;;;;;11.18;100.00;101419.63;5003739;28;20058;-78
2024/02/15 01:49:33;;;;;;;13.73;6.20;;;;;;;11.21;100.00;101421.13;4987354;28;20480;-79
2024/02/15 01:52:00;;;;;;;18.83;6.55;;;;;;;11.19;100.00;101417.84;4988583;28;20045;-79
2024/02/15 01:54:27;;;;;;;17.67;6.13;;;;;;;11.13;100.00;101419.25;4987535;28;20046;-78
2024/02/15 01:56:54;;;;;;;13.82;5.57;;;;;;;11.09;100.00;101416.16;4989314;28;20030;-79
2024/02/15 01:59:23;;;;;;;19.80;7.22;;;;;;;11.04;100.00;101415.75;4974724;28;20469;-79
2024/02/15 02:01:49;;;;;;;12.55;5.82;;;;;;;11.06;100.00;101418.22;4973992;28;20125;-79
2024/02/15 02:04:15;;;;;;;20.33;6.13;;;;;;;11.15;100.00;101421.69;4986611;28;20033;-79
2024/02/15 02:06:40;;;;;;;16.88;6.65;;;;;;;11.17;100.00;101419.78;4988241;28;20137;-80
2024/02/15 02:09:10;;;;;;;15.43;5.88;;;;;;;11.19;100.00;101412.66;4991582;28;20056;-78
2024/02/15 02:11:36;;;;;;;17.50;5.15;;;;;;;11.26;100.00;101406.75;4977301;28;20556;-79
2024/02/15 02:14:01;;;;;;;13.90;4.65;;;;;;;11.18;100.00;101411.03;4978329;28;20118;-79
2024/02/15 02:16:28;;;;;;;14.77;4.30;;;;;;;11.10;100.00;101409.16;5003991;28;20404;-80
2024/02/15 02:18:58;;;;;;;23.20;5.22;;;;;;;11.08;100.00;101408.50;4975231;28;20053;-79
2024/02/15 02:21:25;;;;;;;10.05;3.58;;;;;;;11.04;100.00;101391.59;4990024;28;20137;-79
2024/02/15 02:23:53;;;;;;;17.52;5.25;;;;;;;11.04;100.00;101386.41;4990260;28;20531;-78
2024/02/15 02:26:21;;;;;;;19.45;4.45;;;;;;;11.00;100.00;101385.88;4990946;28;20108;-78
2024/02/15 02:28:47;;;;;;;25.27;4.53;;;;;;;11.09;100.00;101376.38;5008559;28;20034;-79
2024/02/15 02:31:12;;;;;;;14.43;4.30;;;;;;;11.09;100.00;101385.00;5007121;28;20044;-79
2024/02/15 02:33:38;;;;;;;13.73;4.22;;;;;;;11.00;100.00;101375.47;5006248;28;20033;-79
2024/02/15 02:36:07;;;;;;;15.13;5.10;;;;;;;10.95;100.00;101372.50;4991373;28;20048;-78
2024/02/15 02:38:32;;;;;;;13.05;4.53;;;;;;;10.86;100.00;101374.16;4976531;28;20033;-79
2024/02/15 02:40:58;;;;;;;19.48;5.05;;;;;;;10.92;100.00;101370.19;4977442;28;20038;-79
2024/02/15 02:43:24;;;;;;;12.98;4.47;;;;;;;10.93;100.00;101364.03;4991447;28;20528;-78
2024/02/15 02:45:49;;;;;;;10.90;3.55;;;;;;;10.86;100.00;101374.16;4985294;28;20089;-79
2024/02/15 02:48:14;;;;;;;14.27;4.32;;;;;;;10.86;100.00;101365.56;4976573;28;20034;-79
2024/02/15 02:50:40;;;;;;;15.82;4.22;;;;;;;10.80;100.00;101360.97;4973764;28;20034;-78
2024/02/15 02:53:05;;;;;;;17.70;4.88;;;;;;;10.83;100.00;101368.44;5008983;28;20045;-78
2024/02/15 02:55:31;;;;;;;12.18;4.05;;;;;;;10.83;100.00;101360.66;5006505;28;20045;-79
2024/02/15 02:57:56;;;;;;;14.80;3.83;;;;;;;10.75;100.00;101363.16;4994833;28;20030;-79
2024/02/15 03:00:22;;;;;;;24.85;5.35;;;;;;;10.79;100.00;101364.50;4973317;28;21308;-79
2024/02/15 03:02:48;;;;;;;14.32;4.00;;;;;;;10.70;100.00;101358.41;4990465;28;20519;-78
2024/02/15 03:05:14;;;;;;;12.90;4.40;;;;;;;10.68;100.00;101357.72;4990920;28;20042;-79
2024/02/15 03:07:44;;;;;;;11.18;3.58;;;;;;;10.62;100.00;101359.09;4989839;28;20022;-79
2024/02/15 03:10:09;;;;;;;20.10;3.72;;;;;;;10.65;100.00;101352.84;5000519;28;20037;-79
2024/02/15 03:12:36;;;;;;;9.00;3.60;;;;;;;10.61;100.00;101347.13;4991688;28;20054;-79
2024/02/15 03:15:11;;;;;;;9.65;3.90;;;;;;;10.58;100.00;101349.97;4976145;28;20038;-78
2024/02/15 03:17:40;;;;;;;21.70;4.30;;;;;;;10.58;100.00;101346.56;4989441;28;20451;-79
2024/02/15 03:20:23;;;;;;;15.27;3.67;;;;;;;10.62;100.00;101347.91;5000595;28;20034;-79
2024/02/15 03:22:56;;;;;;;;;;;;;;;10.60;100.00;101340.28;4991900;28;20064;-79
2024/02/15 03:25:25;;;;;;;12.88;3.83;;;;;;;10.58;100.00;101339.59;4977483;28;19940;-79
2024/02/15 03:27:52;;;;;;;20.42;3.95;;;;;;;10.60;100.00;101337.69;4988540;28;20516;-79
2024/02/15 03:30:21;;;;;;;12.02;4.32;;;;;;;10.64;100.00;101341.66;4970606;28;20046;-79
2024/02/15 03:32:50;;;;;;;8.55;3.70;;;;;;;10.66;100.00;101339.72;4990685;28;20142;-79
2024/02/15 03:35:17;;;;;;;14.95;5.20;;;;;;;10.69;100.00;101331.66;5006902;28;20049;-79
2024/02/15 03:37:43;;;;;;;17.55;4.35;;;;;;;10.67;100.00;101330.97;5007791;28;20089;-79
2024/02/15 03:40:09;;;;;;;12.98;3.88;;;;;;;10.67;100.00;101325.78;4976938;28;20030;-79
2024/02/15 03:42:38;;;;;;;17.10;3.67;;;;;;;10.78;100.00;101331.75;4990659;28;20045;-79
2024/02/15 03:45:06;;;;;;;12.38;3.88;;;;;;;10.69;100.00;101329.06;4991002;28;20029;-79
2024/02/15 03:47:37;;;;;;;19.08;4.40;;;;;;;10.73;100.00;101328.78;5009525;28;20069;-79
2024/02/15 03:50:04;;;;;;;13.30;4.00;;;;;;;10.74;100.00;101333.81;4975314;28;20025;-79
2024/02/15 03:52:30;;;;;;;16.52;4.13;;;;;;;10.78;100.00;101329.16;4973713;28;20034;-79
2024/02/15 03:54:59;;;;;;;18.90;4.80;;;;;;;10.69;100.00;101328.25;4990477;28;20105;-79
2024/02/15 03:57:28;;;;;;;10.52;3.40;;;;;;;10.71;100.00;101341.88;4977339;28;20445;-79
2024/02/15 03:59:56;;;;;;;15.60;3.97;;;;;;;10.78;100.00;101342.13;5007522;28;20033;-79
2024/02/15 04:02:26;;;;;;;22.70;3.88;;;;;;;10.83;100.00;101350.28;4991924;28;20038;-79
2024/02/15 04:04:54;;;;;;;14.60;3.85;;;;;;;10.83;100.00;101345.09;4978283;28;20093;-79
2024/02/15 04:07:20;;;;;;;8.55;3.75;;;;;;;10.90;100.00;101346.16;5013242;28;20117;-79
2024/02/15 04:09:45;;;;;;;8.35;2.65;;;;;;;10.74;100.00;101336.41;4987690;28;20033;-79
2024/02/15 04:12:11;;;;;;;10.43;3.92;;;;;;;10.81;100.00;101337.47;4990645;28;20791;-78
2024/02/15 04:14:40;;;;;;;15.25;2.97;;;;;;;10.80;100.00;101345.41;5007142;28;20041;-78
2024/02/15 04:17:06;;;;;;;13.65;3.58;;;;;;;10.89;100.00;101347.94;4975850;28;20419;-79
2024/02/15 04:19:32;;;;;;;15.45;3.22;;;;;;;10.86;100.00;101337.84;4970192;28;20034;-78
2024/02/15 04:21:58;;;;;;;10.30;4.22;;;;;;;10.88;100.00;101345.50;4991972;28;20038;-78
2024/02/15 04:24:25;;;;;;;12.38;3.33;;;;;;;10.77;100.00;101348.28;4986911;28;20036;-79
2024/02/15 04:26:51;;;;;;;13.70;3.63;;;;;;;10.68;100.00;101342.16;4970663;28;20112;-79
2024/02/15 04:29:20;;;;;;;11.20;3.10;;;;;;;10.76;100.00;101344.88;4988846;28;20070;-79
2024/02/15 04:31:49;;;;;;;14.13;3.95;;;;;;;10.77;100.00;101348.28;4989318;28;20046;-80
2024/02/15 04:34:15;;;;;;;8.80;3.15;;;;;;;10.66;100.00;101350.09;4965703;28;20018;-79
2024/02/15 04:36:40;;;;;;;15.10;3.42;;;;;;;10.69;100.00;101349.81;4990168;28;20551;-79
2024/02/15 04:39:06;;;;;;;12.20;3.85;;;;;;;10.67;100.00;101350.91;4990804;28;20045;-78
2024/02/15 04:41:32;;;;;;;14.05;3.50;;;;;;;10.68;100.00;101349.94;4985687;28;20042;-79
2024/02/15 04:43:57;;;;;;;15.00;4.78;;;;;;;10.64;100.00;101346.00;4989105;28;20517;-79
2024/02/15 04:46:23;;;;;;;14.35;3.35;;;;;;;10.73;100.00;101344.34;5003232;28;20041;-79
2024/02/15 04:48:51;;;;;;;14.27;3.58;;;;;;;10.69;100.00;101342.03;4989448;28;20036;-79
2024/02/15 04:51:17;;;;;;;10.73;2.28;;;;;;;10.69;100.00;101344.63;4989176;28;20045;-78
2024/02/15 04:53:47;;;;;;;12.30;2.92;;;;;;;10.74;100.00;101338.16;4987818;28;20037;-79
2024/02/15 04:56:16;;;;;;;13.43;2.20;;;;;;;10.69;100.00;101342.03;5007624;28;20124;-79
2024/02/15 04:58:45;;;;;;;18.40;2.85;;;;;;;10.74;100.00;101348.53;4984112;28;20030;-79
2024/02/15 05:01:17;;;;;;;14.93;2.67;;;;;;;10.79;100.00;101339.38;4986847;28;20034;-79
2024/02/15 05:03:43;;;;;;;11.52;2.78;;;;;;;10.77;100.00;101330.91;4971865;28;20029;-79
2024/02/15 05:06:09;;;;;;;10.52;2.47;;;;;;;10.79;100.00;101323.81;4974097;28;20093;-79
2024/02/15 05:08:38;;;;;;;8.45;2.25;;;;;;;10.79;100.00;101321.22;5010399;28;20025;-80
2024/02/15 05:11:05;;;;;;;9.50;2.42;;;;;;;10.80;100.00;101322.06;4970995;28;20042;-80
2024/02/15 05:13:30;;;;;;;8.00;1.77;;;;;;;10.70;100.00;101315.13;4973581;28;20042;-79
2024/02/15 05:15:56;;;;;;;12.38;2.58;;;;;;;10.63;100.00;101323.63;4987148;28;20046;-80
2024/02/15 05:18:21;;;;;;;10.57;2.83;;;;;;;10.66;100.00;101325.94;4974577;28;20026;-80
2024/02/15 05:20:47;;;;;;;8.52;2.47;;;;;;;10.62;100.00;101324.59;5007440;28;20381;-79
2024/02/15 05:23:12;;;;;;;7.68;2.35;;;;;;;10.61;100.00;101320.38;5006360;28;20034;-80
2024/02/15 05:25:38;;;;;;;12.35;3.03;;;;;;;10.67;100.00;101322.38;4986514;28;20679;-80
2024/02/15 05:28:06;;;;;;;14.30;2.70;;;;;;;10.67;100.00;101319.78;4976207;28;20030;-79
2024/02/15 05:30:32;;;;;;;8.95;2.60;;;;;;;10.68;100.00;101316.22;4973635;28;20062;-80
2024/02/15 05:32:58;;;;;;;11.75;3.35;;;;;;;10.68;100.00;101316.22;4987830;28;20369;-80
2024/02/15 05:35:24;;;;;;;10.55;3.05;;;;;;;10.63;100.00;101314.06;5007446;28;20049;-80
2024/02/15 05:37:52;;;;;;;12.70;3.58;;;;;;;10.69;100.00;101316.09;4973469;28;20021;-79
2024/02/15 05:40:19;;;;;;;12.15;3.17;;;;;;;10.73;100.00;101308.84;4976540;28;20097;-80
2024/02/15 05:42:45;;;;;;;18.73;3.78;;;;;;;10.79;100.00;101310.03;4989923;28;20061;-79
2024/02/15 05:45:22;;;;;;;11.75;2.80;;;;;;;10.90;100.00;101310.63;4966555;28;20034;-80
2024/02/15 05:47:48;;;;;;;16.92;3.80;;;;;;;10.89;100.00;101313.41;5008868;28;20092;-80
2024/02/15 05:50:15;;;;;;;15.93;3.63;;;;;;;10.76;100.00;101318.13;4974509;28;20512;-81
2024/02/15 05:52:40;;;;;;;8.80;2.92;;;;;;;10.67;100.00;101307.63;4987784;28;20041;-81
2024/02/15 05:55:07;;;;;;;13.18;3.67;;;;;;;10.76;100.00;101313.75;4974495;28;20404;-81
2024/02/15 05:57:32;;;;;;;15.35;3.38;;;;;;;10.79;100.00;101304.84;4995322;28;20034;-81
2024/02/15 06:00:02;;;;;;;8.57;2.85;;;;;;;10.84;100.00;101307.81;4994755;28;20029;-81
2024/02/15 06:02:30;;;;;;;12.45;2.97;;;;;;;10.80;100.00;101293.53;4993333;28;20053;-81
2024/02/15 06:05:01;;;;;;;11.82;3.08;;;;;;;10.80;100.00;101294.31;4971095;28;20046;-81
2024/02/15 06:07:26;;;;;;;14.95;3.45;;;;;;;10.78;100.00;101291.06;4993811;28;20057;-81
2024/02/15 06:09:52;;;;;;;13.15;3.83;;;;;;;10.77;100.00;101284.22;4995177;28;20034;-80
2024/02/15 06:12:17;;;;;;;12.88;3.50;;;;;;;10.68;100.00;101288.53;4992462;28;20030;-80
2024/02/15 06:14:42;;;;;;;15.60;3.47;;;;;;;10.66;100.00;101298.22;4994762;28;20034;-79
2024/02/15 06:17:09;;;;;;;13.95;3.75;;;;;;;10.62;100.00;101294.28;4992304;28;20035;-79
2024/02/15 06:19:34;;;;;;;17.63;3.85;;;;;;;10.58;100.00;101295.53;4974762;28;20075;-79
2024/02/15 06:22:01;;;;;;;6.22;2.97;;;;;;;10.59;100.00;101304.16;5002200;28;20058;-79
2024/02/15 06:24:28;;;;;;;8.73;2.47;;;;;;;10.52;100.00;101302.09;4975424;28;20046;-80
2024/02/15 06:26:59;;;;;;;10.88;3.38;;;;;;;10.49;100.00;101307.59;4992785;28;20037;-80
2024/02/15 06:40:23;;;;;;;6.70;3.00;;;;;;;10.62;100.00;101307.25;5009211;28;20066;-79
2024/02/15 06:42:49;;;;;;;12.90;3.67;;;;;;;10.64;100.00;101304.50;4990305;28;20061;-78
2024/02/15 06:45:14;;;;;;;12.45;3.15;;;;;;;10.60;100.00;101301.38;4994691;28;20468;-79
2024/02/15 06:47:44;;;;;;;9.68;2.78;;;;;;;10.59;100.00;101304.16;5006904;28;20034;-79
2024/02/15 06:50:13;;;;;;;9.38;3.08;;;;;;;10.57;100.00;101308.63;4992975;28;20038;-79
2024/02/15 06:52:41;;;;;;;10.57;2.72;;;;;;;10.51;100.00;101310.84;5008558;28;20401;-79
2024/02/15 06:55:08;;;;;;;10.35;2.55;;;;;;;10.52;100.00;101311.66;4991851;28;20042;-78
2024/02/15 06:57:37;;;;;;;9.40;2.42;;;;;;;10.50;100.00;101318.78;4992034;28;20705;-80
2024/02/15 07:00:07;;;;;;;9.18;2.80;;;;;;;10.52;100.00;101314.25;4990752;28;20080;-80
2024/02/15 07:02:33;;;;;;;6.72;2.88;;;;;;;10.47;100.00;101324.22;4977591;28;20048;-80
2024/02/15 07:04:58;;;;;;;8.32;2.38;;;;;;;10.46;100.00;101318.25;4975453;28;21188;-80
2024/02/15 07:07:25;;;;;;;9.50;2.80;;;;;;;10.49;100.00;101322.31;4995778;28;20554;-81
2024/02/15 07:09:51;;;;;;;5.55;3.28;;;;;;;10.66;100.00;101316.38;4993590;28;20105;-80
2024/02/15 07:12:16;;;;;;;13.18;2.72;;;;;;;10.64;100.00;101312.28;4973866;28;20129;-81
2024/02/15 07:14:42;;;;;;;8.00;3.00;;;;;;;10.69;100.00;101310.91;4993392;28;20042;-81
2024/02/15 07:17:08;;;;;;;7.90;3.00;;;;;;;10.60;100.00;101309.16;4993442;28;20034;-81
2024/02/15 07:19:36;;;;;;;9.68;3.20;;;;;;;10.58;100.00;101308.50;4993642;28;20042;-81
2024/02/15 07:22:02;;;;;;;10.52;3.50;;;;;;;10.56;100.00;101310.41;5010945;28;20049;-81
2024/02/15 07:24:28;;;;;;;9.38;3.10;;;;;;;10.52;100.00;101311.66;4981505;28;20761;-81
2024/02/15 07:26:55;;;;;;;5.78;3.03;;;;;;;10.46;100.00;101313.06;4990048;28;20042;-81
2024/02/15 07:29:23;;;;;;;9.80;2.75;;;;;;;10.50;100.00;101309.22;4977511;28;20045;-81
2024/02/15 07:31:49;;;;;;;13.43;3.78;;;;;;;10.65;100.00;101308.75;4975308;28;20034;-81
2024/02/15 07:34:15;;;;;;;13.35;3.35;;;;;;;10.60;100.00;101303.97;4995353;28;20056;-86
2024/02/15 07:36:42;;;;;;;15.93;4.25;;;;;;;10.55;100.00;101318.34;4988767;28;20496;-82
2024/02/15 07:39:12;;;;;;;17.50;3.72;;;;;;;10.49;100.00;101320.56;4979388;28;20045;-81
2024/02/15 07:41:38;;;;;;;11.07;3.22;;;;;;;10.60;100.00;101321.31;4978365;28;20062;-81
2024/02/15 07:44:04;;;;;;;9.70;3.28;;;;;;;10.63;100.00;101315.84;4977804;28;20081;-80
2024/02/15 07:46:30;;;;;;;11.45;4.60;;;;;;;10.63;100.00;101314.06;4978973;28;20598;-80
2024/02/15 07:48:56;;;;;;;8.60;3.17;;;;;;;10.79;100.00;101308.25;4979189;28;20034;-81
2024/02/15 07:51:23;;;;;;;12.05;3.97;;;;;;;10.67;100.00;101304.22;4977850;28;20038;-80
2024/02/15 07:53:49;;;;;;;9.18;3.53;;;;;;;10.68;100.00;101305.84;4997432;28;20030;-80
2024/02/15 07:56:16;;;;;;;6.40;3.17;;;;;;;10.73;100.00;101313.22;4992094;28;20098;-79
2024/02/15 07:58:48;;;;;;;12.48;3.35;;;;;;;10.74;100.00;101315.66;4977210;28;20022;-80
2024/02/15 08:01:14;;;;;;;14.43;3.80;;;;;;;10.68;100.00;101311.03;5007711;28;20050;-80
2024/02/15 08:03:45;;;;;;;10.98;3.35;;;;;;;10.67;100.00;101307.63;4992835;28;20029;-80
2024/02/15 08:06:15;;;;;;;14.20;3.47;;;;;;;10.67;100.00;101310.22;4992297;28;20038;-79
2024/02/15 08:08:47;;;;;;;18.55;4.20;;;;;;;10.67;100.00;101306.81;4976249;28;20121;-82
2024/02/15 08:11:18;;;;;;;12.55;3.17;;;;;;;10.76;100.00;101303.38;4990433;28;20048;-80
2024/02/15 08:13:49;;;;;;;20.98;4.93;;;;;;;10.78;100.00;101304.03;5011087;28;20105;-80
2024/02/15 08:16:19;;;;;;;16.00;3.00;;;;;;;10.81;100.00;101297.72;4992609;28;20504;-81
2024/02/15 08:18:46;;;;;;;14.00;3.97;;;;;;;10.81;100.00;101292.53;4975614;28;20049;-80
2024/02/15 08:21:11;;;;;;;12.20;3.35;;;;;;;10.83;100.00;101295.81;4976327;28;20408;-80
2024/02/15 08:23:38;;;;;;;10.15;2.97;;;;;;;10.79;100.00;101295.28;5008672;28;20034;-81
2024/02/15 08:26:04;;;;;;;14.63;3.22;;;;;;;10.77;100.00;101296.38;4977221;28;20129;-80
2024/02/15 08:28:29;;;;;;;8.88;3.65;;;;;;;10.77;100.00;101292.00;4995547;28;20045;-80
2024/02/15 08:30:57;;;;;;;14.30;2.97;;;;;;;10.77;100.00;101291.19;4972948;28;20066;-79
2024/02/15 08:33:23;;;;;;;15.23;2.95;;;;;;;10.82;100.00;101292.41;4992830;28;20125;-80
2024/02/15 08:35:49;;;;;;;10.80;2.95;;;;;;;10.85;100.00;101288.69;4989465;28;20030;-79
2024/02/15 08:38:14;;;;;;;13.90;2.97;;;;;;;10.94;100.00;101282.63;4989354;28;20025;-79
2024/02/15 08:40:39;;;;;;;17.55;4.13;;;;;;;10.93;100.00;101281.00;4972351;28;20165;-80
2024/02/15 08:43:06;;;;;;;16.70;3.65;;;;;;;10.91;100.00;101277.75;5008082;28;20053;-80
2024/02/15 08:45:32;;;;;;;12.48;3.53;;;;;;;10.99;100.00;101272.63;4977876;28;20056;-79
2024/02/15 08:47:57;;;;;;;16.30;4.07;;;;;;;10.89;100.00;101277.88;5010001;28;20049;-79
2024/02/15 08:50:23;;;;;;;15.30;3.85;;;;;;;10.96;100.00;101282.50;5011438;28;20505;-79
2024/02/15 08:52:49;;;;;;;10.70;3.05;;;;;;;10.93;100.00;101277.59;5006889;28;20034;-79
2024/02/15 08:55:16;;;;;;;12.45;3.47;;;;;;;10.91;100.00;101273.38;4973895;28;20042;-79
2024/02/15 08:57:44;;;;;;;15.98;4.40;;;;;;;11.01;100.00;101275.91;5004503;28;20160;-80
2024/02/15 09:00:13;;;;;;;14.88;3.72;;;;;;;11.02;100.00;101267.16;4991744;28;20415;-79
2024/02/15 09:02:40;;;;;;;13.80;3.60;;;;;;;11.06;100.00;101268.50;5013014;28;20030;-80
2024/02/15 09:05:06;;;;;;;12.63;4.38;;;;;;;11.08;100.00;101265.75;4975259;28;20034;-79
2024/02/15 09:07:31;;;;;;;14.23;4.38;;;;;;;11.13;100.00;101262.69;4991614;28;20042;-79
2024/02/15 09:09:57;;;;;;;22.38;3.88;;;;;;;11.19;100.00;101264.69;4991351;28;20030;-80
2024/02/15 09:12:22;;;;;;;12.25;4.05;;;;;;;11.18;100.00;101263.09;4974790;28;20037;-81
2024/02/15 09:14:48;;;;;;;11.05;4.45;;;;;;;11.18;100.00;101260.50;4976661;28;20040;-79
2024/02/15 09:17:14;;;;;;;17.17;5.15;;;;;;;11.21;100.00;101261.00;4990972;28;20061;-80
2024/02/15 09:19:39;;;;;;;16.58;4.93;;;;;;;11.23;100.00;101255.66;4974308;28;20136;-79
2024/02/15 09:22:06;;;;;;;16.08;4.20;;;;;;;11.33;100.00;101256.41;4989721;28;20061;-80
2024/02/15 09:24:33;;;;;;;11.82;4.45;;;;;;;11.41;100.00;101248.66;4989750;28;20236;-79
2024/02/15 09:27:02;;;;;;;15.57;3.65;;;;;;;11.50;100.00;101245.16;4986967;28;20577;-80
2024/02/15 09:29:32;;;;;;;15.07;3.38;;;;;;;11.54;100.00;101248.28;4994389;28;20456;-79
2024/02/15 09:31:58;;;;;;;13.50;4.47;;;;;;;11.58;100.00;101249.59;4974411;28;20112;-78
2024/02/15 09:34:24;;;;;;;12.93;3.25;;;;;;;11.67;100.00;101253.09;4993090;28;20041;-80
2024/02/15 09:36:50;;;;;;;12.35;3.55;;;;;;;11.73;100.00;101252.47;4996465;28;20042;-79
2024/02/15 09:39:17;;;;;;;9.68;2.95;;;;;;;11.78;100.00;101247.63;5009792;28;20500;-80
2024/02/15 09:41:42;;;;;;;10.10;3.08;;;;;;;11.84;100.00;101259.19;5012405;28;20050;-80
2024/02/15 09:44:08;;;;;;;9.75;3.10;;;;;;;11.83;100.00;101255.78;5012651;28;20029;-79
2024/02/15 09:46:46;;;;;;;7.50;2.60;;;;;;;11.88;100.00;101255.31;4997862;28;20113;-79
2024/02/15 09:49:13;;;;;;;10.75;2.72;;;;;;;11.97;100.00;101257.03;4977266;28;20041;-79
2024/02/15 09:51:40;;;;;;;17.60;3.10;;;;;;;11.95;100.00;101253.78;4977798;28;20191;-79
2024/02/15 09:54:06;;;;;;;10.43;2.90;;;;;;;12.01;100.00;101257.53;5009971;28;20037;-79
2024/02/15 09:56:34;;;;;;;7.75;2.47;;;;;;;12.05;100.00;101253.66;4993361;28;20494;-79
2024/02/15 09:59:00;;;;;;;9.57;2.35;;;;;;;12.08;100.00;101248.16;4998362;28;20481;-79
2024/02/15 10:01:28;;;;;;;8.77;2.45;;;;;;;12.12;100.00;101244.28;4993541;28;20046;-79
2024/02/15 10:03:54;;;;;;;8.43;2.33;;;;;;;12.23;100.00;101249.22;4990511;28;20117;-79
2024/02/15 10:06:20;;;;;;;7.88;2.25;;;;;;;12.31;100.00;101247.63;4968903;28;20044;-79
2024/02/15 10:08:47;;;;;;;15.02;2.50;;;;;;;12.29;100.00;101245.16;4993130;28;20033;-78
2024/02/15 10:11:12;;;;;;;7.03;2.10;;;;;;;12.23;100.00;101243.19;4979512;28;20571;-79
2024/02/15 10:13:39;;;;;;;5.25;1.83;;;;;;;12.33;100.00;101245.69;4976774;28;20037;-79
2024/02/15 10:16:18;;;;;;;6.97;1.90;;;;;;;12.39;100.00;101242.44;4991955;28;20500;-79
2024/02/15 10:18:46;;;;;;;9.95;1.77;;;;;;;12.45;100.00;101244.41;4979780;28;20022;-79
2024/02/15 10:21:24;;;;;;;7.97;2.08;;;;;;;12.47;100.00;101242.47;4991937;28;20038;-79
2024/02/15 10:24:05;;;;;;;9.75;2.05;;;;;;;12.52;100.00;101245.41;5010431;28;20401;-79
2024/02/15 10:26:30;;;;;;;6.53;1.77;;;;;;;12.62;100.00;101243.50;4989071;28;20178;-79
2024/02/15 10:29:08;;;;;;;6.47;1.88;;;;;;;12.71;100.00;101239.13;4974962;28;20034;-79
2024/02/15 10:31:40;;;;;;;3.70;2.00;;;;;;;12.81;100.00;101231.19;4973245;28;20046;-80
2024/02/15 10:34:07;;;;;;;11.10;2.17;;;;;;;12.81;100.00;101231.19;4990435;28;20488;-79
2024/02/15 10:36:34;;;;;;;6.93;1.85;;;;;;;12.81;100.00;101233.78;4979211;28;20034;-79
2024/02/15 10:39:16;;;;;;;11.50;2.05;;;;;;;12.87;100.00;101230.53;4986549;28;20037;-79
2024/02/15 10:41:44;;;;;;;5.35;2.65;;;;;;;12.84;100.00;101225.66;5005904;28;20046;-80
2024/02/15 10:44:23;;;;;;;10.70;1.50;;;;;;;12.91;100.00;101225.84;4992054;28;21533;-78
2024/02/15 10:46:51;;;;;;;5.82;1.85;;;;;;;12.98;100.00;101222.44;4976468;28;20045;-78
2024/02/15 10:49:26;;;;;;;6.53;2.20;;;;;;;13.09;100.00;101220.47;4991932;28;20476;-79
2024/02/15 10:51:56;;;;;;;5.03;1.77;;;;;;;13.18;100.00;101220.31;5002230;28;20137;-78
2024/02/15 10:54:39;;;;;;;10.02;2.53;;;;;;;13.23;100.00;101215.44;5010041;28;20111;-79
2024/02/15 10:57:06;;;;;;;9.88;2.35;;;;;;;13.31;100.00;101206.81;4974074;28;20073;-79
2024/02/15 10:59:38;;;;;;;9.25;2.25;;;;;;;13.46;100.00;101211.38;4974544;28;20520;-79
2024/02/15 11:02:27;;;;;;;9.20;1.90;;;;;;;13.45;100.00;101207.97;4969742;28;20081;-79
2024/02/15 11:04:57;;;;;;;10.02;1.85;;;;;;;13.58;100.00;101202.22;4977058;28;20038;-79
2024/02/15 11:07:28;;;;;;;6.68;2.10;;;;;;;13.60;100.00;101216.75;4976401;28;20778;-79
2024/02/15 11:09:58;;;;;;;4.97;2.28;;;;;;;13.60;100.00;101208.13;4997269;28;20097;-79
2024/02/15 11:12:25;;;;;;;8.25;1.67;;;;;;;13.67;100.00;101210.84;5009192;28;20037;-79
2024/02/15 11:14:53;;;;;;;5.63;1.80;;;;;;;13.79;100.00;101205.13;5009751;28;20038;-79
2024/02/15 11:17:37;;;;;;;7.55;1.70;;;;;;;13.88;100.00;101205.09;4974515;28;20034;-79
2024/02/15 11:20:08;;;;;;;8.40;1.80;;;;;;;13.98;100.00;101201.31;4984503;28;20045;-78
2024/02/15 11:22:36;;;;;;;9.02;1.90;;;;;;;14.09;100.00;101200.16;4976379;28;20050;-79